»·PEaware :: N7FJ KBXK-KHMT

N7FJ :: KBXK-KHMT

FLIGHT INFORMATION

Flight Status: Arrived
Operator: Privately registered:
United States
More flights under this callsign
Pilot: Zuqi C. (19949)
Aircraft: BEECH AIRCRAFT BARON
(BE58)
More flights by this aircraft type
Origin: KBXK Buckeye Mun
United States
Destination: KHMT Hemet-Ryan
United States
More flights between these airports :: More routes between these airports
Route:
File this flight plan on PilotEdge
Remarks:
Altitude:
(Current/Filed)
12,500ft
Speed:
(Current/Filed)
190kts
Departed: 04-Apr-20 03:44 PM
Arrived: 04-Apr-20 05:03 PM
Distance/Time
Traveled:
217nm/1:18
Distance/Time
To Go:
Arrived

Flight Plot

Page will automatically refresh every two minutes.

Flight plan parsing failed; only flown route is shown


Map Options




Map Legend


Flown Route
Filed Route
Departure Airport
Arrival Airport
Navaid (VOR, NDB)
Fix

Horizontal Profiles

Position Reports

Time Latitude Longitude Heading Altitude Ground
Speed
04-Apr-20 15:42 33.424093 -112.686124 179 1039ft 94kts
04-Apr-20 15:43 33.408659 -112.705211 305 2218ft 131kts
04-Apr-20 15:44 33.425375 -112.740000 290 3507ft 133kts
04-Apr-20 15:45 33.442117 -112.777475 291 4898ft 125kts
04-Apr-20 15:46 33.452825 -112.814890 269 6304ft 116kts
04-Apr-20 15:47 33.455688 -112.851982 267 7629ft 111kts
04-Apr-20 15:48 33.458607 -112.888389 267 8780ft 108kts
04-Apr-20 15:49 33.461492 -112.924375 267 9807ft 109kts
04-Apr-20 15:50 33.464363 -112.959371 266 10801ft 101kts
04-Apr-20 15:51 33.467245 -112.996684 268 11411ft 123kts
04-Apr-20 15:52 33.470633 -113.038194 268 12117ft 126kts
04-Apr-20 15:53 33.474025 -113.081549 268 12517ft 144kts
04-Apr-20 15:54 33.478157 -113.133083 269 12511ft 162kts
04-Apr-20 15:55 33.482525 -113.188033 269 12508ft 168kts
04-Apr-20 15:56 33.486919 -113.243990 269 12507ft 169kts
04-Apr-20 15:57 33.491265 -113.300016 269 12507ft 169kts
04-Apr-20 15:58 33.495617 -113.356147 269 12507ft 169kts
04-Apr-20 15:59 33.499920 -113.412042 269 12507ft 169kts
04-Apr-20 16:00 33.504146 -113.468240 270 12507ft 169kts
04-Apr-20 16:01 33.508430 -113.523961 271 12507ft 170kts
04-Apr-20 16:02 33.512778 -113.581285 271 12515ft 173kts
04-Apr-20 16:03 33.517150 -113.639460 271 12506ft 176kts
04-Apr-20 16:04 33.521552 -113.698369 270 12511ft 178kts
04-Apr-20 16:05 33.525952 -113.757645 271 12503ft 179kts
04-Apr-20 16:06 33.530349 -113.817385 271 12464ft 179kts
04-Apr-20 16:07 33.534737 -113.877128 271 12464ft 179kts
04-Apr-20 16:08 33.539073 -113.936776 271 12463ft 179kts
04-Apr-20 16:09 33.543367 -113.996234 271 12473ft 178kts
04-Apr-20 16:10 33.547604 -114.055324 271 12500ft 178kts
04-Apr-20 16:11 33.551811 -114.114389 271 12499ft 178kts
04-Apr-20 16:12 33.556015 -114.173768 271 12499ft 178kts
04-Apr-20 16:13 33.560180 -114.233030 271 12499ft 178kts
04-Apr-20 16:14 33.564292 -114.292380 271 12498ft 178kts
04-Apr-20 16:15 33.568434 -114.351756 271 12498ft 178kts
04-Apr-20 16:16 33.572528 -114.411176 271 12498ft 178kts
04-Apr-20 16:17 33.576576 -114.470401 271 12497ft 178kts
04-Apr-20 16:18 33.580599 -114.529667 271 12497ft 178kts
04-Apr-20 16:20 33.584599 -114.589031 271 12497ft 178kts
04-Apr-20 16:21 33.588560 -114.648244 271 12496ft 178kts
04-Apr-20 16:22 33.592513 -114.707826 271 12501ft 179kts
04-Apr-20 16:23 33.596061 -114.767439 269 12502ft 178kts
04-Apr-20 16:24 33.597868 -114.826973 269 12501ft 178kts
04-Apr-20 16:25 33.599545 -114.886309 269 12500ft 178kts
04-Apr-20 16:26 33.601170 -114.945724 269 12500ft 178kts
04-Apr-20 16:27 33.602756 -115.004876 269 12500ft 177kts
04-Apr-20 16:28 33.604318 -115.064179 269 12499ft 177kts
04-Apr-20 16:29 33.605848 -115.123378 269 12499ft 177kts
04-Apr-20 16:30 33.607355 -115.182735 269 12499ft 177kts
04-Apr-20 16:31 33.608828 -115.241913 269 12498ft 177kts
04-Apr-20 16:32 33.610282 -115.301111 269 12498ft 178kts
04-Apr-20 16:33 33.611694 -115.360396 269 12498ft 178kts
04-Apr-20 16:34 33.613088 -115.419825 269 12498ft 178kts
04-Apr-20 16:35 33.614450 -115.479214 269 12480ft 178kts
04-Apr-20 16:36 33.615795 -115.538610 269 12478ft 177kts
04-Apr-20 16:37 33.617090 -115.597672 269 12478ft 177kts
04-Apr-20 16:38 33.618367 -115.657017 268 12482ft 177kts
04-Apr-20 16:39 33.619623 -115.716605 268 12483ft 178kts
04-Apr-20 16:40 33.620814 -115.776182 269 12483ft 178kts
04-Apr-20 16:41 33.622044 -115.835658 269 12482ft 178kts
04-Apr-20 16:41 33.623024 -115.885143 269 12482ft 178kts
04-Apr-20 16:42 33.624169 -115.944589 269 12482ft 178kts
04-Apr-20 16:44 33.625466 -116.013843 269 12481ft 178kts
04-Apr-20 16:44 33.626367 -116.063315 269 12481ft 178kts
04-Apr-20 16:45 33.627426 -116.122770 269 12481ft 177kts
04-Apr-20 16:46 33.631072 -116.181804 275 12480ft 178kts
04-Apr-20 16:48 33.639495 -116.250534 275 12480ft 178kts
04-Apr-20 16:48 33.645517 -116.299334 277 12479ft 176kts
04-Apr-20 16:49 33.652791 -116.356983 277 12484ft 174kts
04-Apr-20 16:50 33.659933 -116.414286 277 12516ft 173kts
04-Apr-20 16:51 33.667073 -116.471805 277 12515ft 174kts
04-Apr-20 16:52 33.674166 -116.529192 277 12515ft 174kts
04-Apr-20 16:53 33.681238 -116.586643 277 12514ft 174kts
04-Apr-20 16:54 33.688541 -116.646788 277 11789ft 201kts
04-Apr-20 16:55 33.696958 -116.714874 277 10304ft 199kts
04-Apr-20 16:56 33.704674 -116.778290 277 8666ft 189kts
04-Apr-20 16:57 33.712172 -116.840699 277 6756ft 191kts
04-Apr-20 16:58 33.719742 -116.903171 277 4762ft 188kts
04-Apr-20 16:59 33.739642 -116.959164 314 2972ft 177kts
04-Apr-20 17:00 33.745910 -116.994581 236 2118ft 93kts
04-Apr-20 17:01 33.734574 -117.020186 242 1515ft 64kts
04-Apr-20 17:02 33.731299 -117.022895 129 1515ft 11kts
04-Apr-20 17:03 33.730879 -117.021258 279 1515ft 0kts
04-Apr-20 17:04 33.730879 -117.021259 279 1515ft 0kts
04-Apr-20 17:05 33.730879 -117.021259 279 1515ft 0kts
04-Apr-20 17:06 33.730879 -117.021259 279 1515ft 0kts

Navigation Log

Ident Type
Flight plan parsing failed, navigation log unavailable